sensor_id;sensor_type;location;lat;lon;timestamp;P1;durP1;ratioP1;P2;durP2;ratioP2
77432;SDS011;66752;48.576;8.876;2023-02-01T00:00:35;7.25;;;3.67;;
77432;SDS011;66752;48.576;8.876;2023-02-01T00:03:01;8.07;;;3.97;;
77432;SDS011;66752;48.576;8.876;2023-02-01T00:05:27;9.30;;;3.80;;
77432;SDS011;66752;48.576;8.876;2023-02-01T00:07:53;6.95;;;3.72;;
77432;SDS011;66752;48.576;8.876;2023-02-01T00:10:19;7.32;;;4.18;;
77432;SDS011;66752;48.576;8.876;2023-02-01T00:12:45;10.10;;;3.90;;
77432;SDS011;66752;48.576;8.876;2023-02-01T00:15:11;7.10;;;3.25;;
77432;SDS011;66752;48.576;8.876;2023-02-01T00:17:37;7.38;;;4.03;;
77432;SDS011;66752;48.576;8.876;2023-02-01T00:20:03;6.85;;;3.65;;
77432;SDS011;66752;48.576;8.876;2023-02-01T00:22:29;8.15;;;3.70;;
77432;SDS011;66752;48.576;8.876;2023-02-01T00:24:55;8.90;;;4.38;;
77432;SDS011;66752;48.576;8.876;2023-02-01T00:27:21;6.57;;;3.13;;
77432;SDS011;66752;48.576;8.876;2023-02-01T00:29:47;6.45;;;3.00;;
77432;SDS011;66752;48.576;8.876;2023-02-01T00:32:13;7.70;;;3.17;;
77432;SDS011;66752;48.576;8.876;2023-02-01T00:34:39;7.45;;;3.53;;
77432;SDS011;66752;48.576;8.876;2023-02-01T00:37:05;6.28;;;3.55;;
77432;SDS011;66752;48.576;8.876;2023-02-01T00:39:31;6.82;;;3.05;;
77432;SDS011;66752;48.576;8.876;2023-02-01T00:41:57;8.23;;;3.42;;
77432;SDS011;66752;48.576;8.876;2023-02-01T00:44:23;7.63;;;3.47;;
77432;SDS011;66752;48.576;8.876;2023-02-01T00:46:49;7.57;;;3.35;;
77432;SDS011;66752;48.576;8.876;2023-02-01T00:49:15;7.47;;;3.97;;
77432;SDS011;66752;48.576;8.876;2023-02-01T00:51:41;7.93;;;3.28;;
77432;SDS011;66752;48.576;8.876;2023-02-01T00:54:07;7.18;;;3.70;;
77432;SDS011;66752;48.576;8.876;2023-02-01T00:56:33;9.15;;;4.07;;
77432;SDS011;66752;48.576;8.876;2023-02-01T00:58:58;7.25;;;3.67;;
77432;SDS011;66752;48.576;8.876;2023-02-01T01:01:26;6.75;;;3.30;;
77432;SDS011;66752;48.576;8.876;2023-02-01T01:03:53;7.30;;;3.35;;
77432;SDS011;66752;48.576;8.876;2023-02-01T01:06:21;7.22;;;3.45;;
77432;SDS011;66752;48.576;8.876;2023-02-01T01:08:47;7.85;;;3.67;;
77432;SDS011;66752;48.576;8.876;2023-02-01T01:11:14;7.15;;;3.55;;
77432;SDS011;66752;48.576;8.876;2023-02-01T01:16:07;7.13;;;3.50;;
77432;SDS011;66752;48.576;8.876;2023-02-01T01:18:34;8.20;;;3.55;;
77432;SDS011;66752;48.576;8.876;2023-02-01T01:21:00;9.25;;;3.88;;
77432;SDS011;66752;48.576;8.876;2023-02-01T01:23:26;6.82;;;3.20;;
77432;SDS011;66752;48.576;8.876;2023-02-01T01:25:52;7.78;;;3.35;;
77432;SDS011;66752;48.576;8.876;2023-02-01T01:28:18;6.25;;;3.00;;
77432;SDS011;66752;48.576;8.876;2023-02-01T01:30:45;7.47;;;3.17;;
77432;SDS011;66752;48.576;8.876;2023-02-01T01:33:11;6.60;;;3.47;;
77432;SDS011;66752;48.576;8.876;2023-02-01T01:35:37;6.38;;;3.10;;
77432;SDS011;66752;48.576;8.876;2023-02-01T01:38:03;6.78;;;3.13;;
77432;SDS011;66752;48.576;8.876;2023-02-01T01:40:29;7.38;;;3.80;;
77432;SDS011;66752;48.576;8.876;2023-02-01T01:42:56;6.35;;;3.10;;
77432;SDS011;66752;48.576;8.876;2023-02-01T01:48:33;6.88;;;3.03;;
77432;SDS011;66752;48.576;8.876;2023-02-01T01:55:59;5.40;;;2.70;;
77432;SDS011;66752;48.576;8.876;2023-02-01T01:58:26;6.45;;;2.50;;
77432;SDS011;66752;48.576;8.876;2023-02-01T02:00:53;5.13;;;2.15;;
77432;SDS011;66752;48.576;8.876;2023-02-01T02:03:30;5.93;;;2.78;;
77432;SDS011;66752;48.576;8.876;2023-02-01T02:05:59;7.72;;;2.40;;
77432;SDS011;66752;48.576;8.876;2023-02-01T02:10:52;5.68;;;1.98;;
77432;SDS011;66752;48.576;8.876;2023-02-01T02:13:29;5.60;;;2.63;;
77432;SDS011;66752;48.576;8.876;2023-02-01T02:16:13;5.70;;;2.47;;
77432;SDS011;66752;48.576;8.876;2023-02-01T02:18:53;5.15;;;2.45;;
77432;SDS011;66752;48.576;8.876;2023-02-01T02:23:59;7.38;;;2.90;;
77432;SDS011;66752;48.576;8.876;2023-02-01T02:26:39;5.78;;;2.90;;
77432;SDS011;66752;48.576;8.876;2023-02-01T02:34:40;6.07;;;2.97;;
77432;SDS011;66752;48.576;8.876;2023-02-01T02:50:29;5.78;;;2.40;;
77432;SDS011;66752;48.576;8.876;2023-02-01T02:53:24;5.55;;;2.55;;
77432;SDS011;66752;48.576;8.876;2023-02-01T02:56:12;6.97;;;3.30;;
77432;SDS011;66752;48.576;8.876;2023-02-01T02:58:57;6.50;;;2.97;;
77432;SDS011;66752;48.576;8.876;2023-02-01T03:01:42;6.47;;;2.97;;
77432;SDS011;66752;48.576;8.876;2023-02-01T03:04:27;5.78;;;3.08;;
77432;SDS011;66752;48.576;8.876;2023-02-01T03:06:53;8.32;;;3.47;;
77432;SDS011;66752;48.576;8.876;2023-02-01T03:09:23;6.72;;;3.45;;
77432;SDS011;66752;48.576;8.876;2023-02-01T03:11:51;5.57;;;3.10;;
77432;SDS011;66752;48.576;8.876;2023-02-01T03:14:36;6.93;;;3.53;;
77432;SDS011;66752;48.576;8.876;2023-02-01T03:17:06;6.30;;;3.10;;
77432;SDS011;66752;48.576;8.876;2023-02-01T03:19:35;8.35;;;3.15;;
77432;SDS011;66752;48.576;8.876;2023-02-01T03:22:07;6.78;;;3.53;;
77432;SDS011;66752;48.576;8.876;2023-02-01T03:24:38;7.13;;;2.95;;
77432;SDS011;66752;48.576;8.876;2023-02-01T03:27:05;11.20;;;4.00;;
77432;SDS011;66752;48.576;8.876;2023-02-01T03:29:36;7.53;;;3.45;;
77432;SDS011;66752;48.576;8.876;2023-02-01T03:32:03;6.25;;;3.22;;
77432;SDS011;66752;48.576;8.876;2023-02-01T03:34:29;7.78;;;3.10;;
77432;SDS011;66752;48.576;8.876;2023-02-01T03:37:05;7.05;;;3.42;;
77432;SDS011;66752;48.576;8.876;2023-02-01T03:39:33;5.97;;;2.60;;
77432;SDS011;66752;48.576;8.876;2023-02-01T03:42:01;7.43;;;3.45;;
77432;SDS011;66752;48.576;8.876;2023-02-01T03:49:40;6.40;;;2.67;;
77432;SDS011;66752;48.576;8.876;2023-02-01T03:52:09;5.85;;;2.78;;
77432;SDS011;66752;48.576;8.876;2023-02-01T03:54:36;4.97;;;2.33;;
77432;SDS011;66752;48.576;8.876;2023-02-01T03:57:04;6.78;;;3.13;;
77432;SDS011;66752;48.576;8.876;2023-02-01T03:59:32;6.07;;;3.10;;
77432;SDS011;66752;48.576;8.876;2023-02-01T04:01:58;5.85;;;2.67;;
77432;SDS011;66752;48.576;8.876;2023-02-01T04:04:24;5.70;;;2.53;;
77432;SDS011;66752;48.576;8.876;2023-02-01T04:06:50;6.18;;;2.78;;
77432;SDS011;66752;48.576;8.876;2023-02-01T04:09:16;6.18;;;2.60;;
77432;SDS011;66752;48.576;8.876;2023-02-01T04:11:42;5.85;;;2.60;;
77432;SDS011;66752;48.576;8.876;2023-02-01T04:14:08;5.88;;;2.90;;
77432;SDS011;66752;48.576;8.876;2023-02-01T04:16:34;6.00;;;2.72;;
77432;SDS011;66752;48.576;8.876;2023-02-01T04:19:00;5.85;;;2.85;;
77432;SDS011;66752;48.576;8.876;2023-02-01T04:21:27;5.63;;;2.38;;
77432;SDS011;66752;48.576;8.876;2023-02-01T04:23:53;6.88;;;2.88;;
77432;SDS011;66752;48.576;8.876;2023-02-01T04:26:19;4.68;;;2.13;;
77432;SDS011;66752;48.576;8.876;2023-02-01T04:28:46;6.28;;;2.53;;
77432;SDS011;66752;48.576;8.876;2023-02-01T04:31:13;5.78;;;2.80;;
77432;SDS011;66752;48.576;8.876;2023-02-01T04:33:39;5.53;;;2.53;;
77432;SDS011;66752;48.576;8.876;2023-02-01T04:36:05;4.90;;;2.20;;
77432;SDS011;66752;48.576;8.876;2023-02-01T04:38:31;4.95;;;2.40;;
77432;SDS011;66752;48.576;8.876;2023-02-01T04:40:57;6.00;;;2.33;;
77432;SDS011;66752;48.576;8.876;2023-02-01T04:43:23;5.32;;;2.38;;
77432;SDS011;66752;48.576;8.876;2023-02-01T04:45:49;4.95;;;2.33;;
77432;SDS011;66752;48.576;8.876;2023-02-01T04:48:16;5.03;;;2.33;;
77432;SDS011;66752;48.576;8.876;2023-02-01T04:50:42;4.47;;;2.38;;
77432;SDS011;66752;48.576;8.876;2023-02-01T04:53:10;4.70;;;2.10;;
77432;SDS011;66752;48.576;8.876;2023-02-01T04:55:36;4.50;;;1.98;;
77432;SDS011;66752;48.576;8.876;2023-02-01T04:58:01;4.97;;;1.85;;
77432;SDS011;66752;48.576;8.876;2023-02-01T05:00:27;6.22;;;2.53;;
77432;SDS011;66752;48.576;8.876;2023-02-01T05:02:53;7.25;;;2.22;;
77432;SDS011;66752;48.576;8.876;2023-02-01T05:05:19;3.95;;;1.70;;
77432;SDS011;66752;48.576;8.876;2023-02-01T05:07:45;4.43;;;2.10;;
77432;SDS011;66752;48.576;8.876;2023-02-01T05:10:12;5.13;;;2.05;;
77432;SDS011;66752;48.576;8.876;2023-02-01T05:12:38;4.25;;;1.88;;
77432;SDS011;66752;48.576;8.876;2023-02-01T05:15:22;5.13;;;2.05;;
77432;SDS011;66752;48.576;8.876;2023-02-01T05:17:48;3.75;;;1.63;;
77432;SDS011;66752;48.576;8.876;2023-02-01T05:20:14;4.97;;;2.30;;
77432;SDS011;66752;48.576;8.876;2023-02-01T05:22:41;5.60;;;2.22;;
77432;SDS011;66752;48.576;8.876;2023-02-01T05:25:08;5.93;;;2.65;;
77432;SDS011;66752;48.576;8.876;2023-02-01T05:27:34;5.28;;;2.45;;
77432;SDS011;66752;48.576;8.876;2023-02-01T05:30:00;4.72;;;2.05;;
77432;SDS011;66752;48.576;8.876;2023-02-01T05:32:26;4.40;;;2.20;;
77432;SDS011;66752;48.576;8.876;2023-02-01T05:34:52;4.28;;;1.98;;
77432;SDS011;66752;48.576;8.876;2023-02-01T05:37:18;5.97;;;2.50;;
77432;SDS011;66752;48.576;8.876;2023-02-01T05:39:44;6.63;;;2.50;;
77432;SDS011;66752;48.576;8.876;2023-02-01T05:42:10;5.90;;;2.55;;
77432;SDS011;66752;48.576;8.876;2023-02-01T05:44:36;5.00;;;2.08;;
77432;SDS011;66752;48.576;8.876;2023-02-01T05:47:02;5.32;;;2.05;;
77432;SDS011;66752;48.576;8.876;2023-02-01T05:49:28;6.25;;;2.42;;
77432;SDS011;66752;48.576;8.876;2023-02-01T05:51:54;5.55;;;2.00;;
77432;SDS011;66752;48.576;8.876;2023-02-01T05:54:20;5.25;;;2.13;;
77432;SDS011;66752;48.576;8.876;2023-02-01T05:56:46;6.40;;;2.58;;
77432;SDS011;66752;48.576;8.876;2023-02-01T05:59:11;4.95;;;2.30;;
77432;SDS011;66752;48.576;8.876;2023-02-01T06:01:37;6.25;;;2.70;;
77432;SDS011;66752;48.576;8.876;2023-02-01T06:04:03;5.25;;;2.22;;
77432;SDS011;66752;48.576;8.876;2023-02-01T06:06:29;5.72;;;2.05;;
77432;SDS011;66752;48.576;8.876;2023-02-01T06:08:55;5.28;;;2.47;;
77432;SDS011;66752;48.576;8.876;2023-02-01T06:11:21;5.85;;;2.63;;
77432;SDS011;66752;48.576;8.876;2023-02-01T06:13:47;6.63;;;3.03;;
77432;SDS011;66752;48.576;8.876;2023-02-01T06:16:13;4.90;;;2.25;;
77432;SDS011;66752;48.576;8.876;2023-02-01T06:18:40;6.80;;;2.47;;
77432;SDS011;66752;48.576;8.876;2023-02-01T06:21:06;4.88;;;2.17;;
77432;SDS011;66752;48.576;8.876;2023-02-01T06:23:33;5.88;;;2.38;;
77432;SDS011;66752;48.576;8.876;2023-02-01T06:25:59;6.20;;;2.47;;
77432;SDS011;66752;48.576;8.876;2023-02-01T06:28:26;6.60;;;2.72;;
77432;SDS011;66752;48.576;8.876;2023-02-01T06:30:53;4.65;;;2.45;;
77432;SDS011;66752;48.576;8.876;2023-02-01T06:33:19;4.57;;;2.03;;
77432;SDS011;66752;48.576;8.876;2023-02-01T06:35:45;6.45;;;2.83;;
77432;SDS011;66752;48.576;8.876;2023-02-01T06:38:12;6.05;;;2.58;;
77432;SDS011;66752;48.576;8.876;2023-02-01T06:40:38;7.72;;;2.03;;
77432;SDS011;66752;48.576;8.876;2023-02-01T06:43:04;5.60;;;2.38;;
77432;SDS011;66752;48.576;8.876;2023-02-01T06:45:30;8.07;;;2.50;;
77432;SDS011;66752;48.576;8.876;2023-02-01T06:47:56;5.55;;;2.63;;
77432;SDS011;66752;48.576;8.876;2023-02-01T06:50:22;4.82;;;2.35;;
77432;SDS011;66752;48.576;8.876;2023-02-01T06:52:48;8.70;;;2.80;;
77432;SDS011;66752;48.576;8.876;2023-02-01T06:55:14;7.63;;;2.60;;
77432;SDS011;66752;48.576;8.876;2023-02-01T06:57:40;4.82;;;2.10;;
77432;SDS011;66752;48.576;8.876;2023-02-01T07:00:06;5.88;;;2.28;;
77432;SDS011;66752;48.576;8.876;2023-02-01T07:02:32;7.97;;;3.38;;
77432;SDS011;66752;48.576;8.876;2023-02-01T07:04:58;8.38;;;3.08;;
77432;SDS011;66752;48.576;8.876;2023-02-01T07:07:24;7.35;;;3.00;;
77432;SDS011;66752;48.576;8.876;2023-02-01T07:09:50;5.78;;;2.67;;
77432;SDS011;66752;48.576;8.876;2023-02-01T07:12:16;6.50;;;2.25;;
77432;SDS011;66752;48.576;8.876;2023-02-01T07:14:43;6.22;;;2.47;;
77432;SDS011;66752;48.576;8.876;2023-02-01T07:17:09;5.40;;;2.40;;
77432;SDS011;66752;48.576;8.876;2023-02-01T07:19:35;6.00;;;2.65;;
77432;SDS011;66752;48.576;8.876;2023-02-01T07:22:01;10.38;;;5.22;;
77432;SDS011;66752;48.576;8.876;2023-02-01T07:24:27;13.35;;;6.05;;
77432;SDS011;66752;48.576;8.876;2023-02-01T07:26:53;18.20;;;7.60;;
77432;SDS011;66752;48.576;8.876;2023-02-01T07:29:19;32.85;;;12.57;;
77432;SDS011;66752;48.576;8.876;2023-02-01T07:31:45;36.00;;;14.55;;
77432;SDS011;66752;48.576;8.876;2023-02-01T07:34:11;25.95;;;10.57;;
77432;SDS011;66752;48.576;8.876;2023-02-01T07:36:37;21.85;;;9.73;;
77432;SDS011;66752;48.576;8.876;2023-02-01T07:39:03;13.07;;;6.00;;
77432;SDS011;66752;48.576;8.876;2023-02-01T07:41:29;9.88;;;4.38;;
77432;SDS011;66752;48.576;8.876;2023-02-01T07:43:55;7.95;;;3.83;;
77432;SDS011;66752;48.576;8.876;2023-02-01T07:46:21;8.65;;;3.80;;
77432;SDS011;66752;48.576;8.876;2023-02-01T07:48:48;7.40;;;3.45;;
77432;SDS011;66752;48.576;8.876;2023-02-01T07:51:15;8.43;;;2.88;;
77432;SDS011;66752;48.576;8.876;2023-02-01T07:56:10;4.68;;;2.38;;
77432;SDS011;66752;48.576;8.876;2023-02-01T07:58:36;5.70;;;3.05;;
77432;SDS011;66752;48.576;8.876;2023-02-01T08:01:02;6.18;;;3.38;;
77432;SDS011;66752;48.576;8.876;2023-02-01T08:06:14;5.10;;;2.30;;
77432;SDS011;66752;48.576;8.876;2023-02-01T08:08:40;6.00;;;2.33;;
77432;SDS011;66752;48.576;8.876;2023-02-01T08:11:09;6.63;;;2.40;;
77432;SDS011;66752;48.576;8.876;2023-02-01T08:13:35;5.10;;;2.50;;
77432;SDS011;66752;48.576;8.876;2023-02-01T08:16:03;4.45;;;2.45;;
77432;SDS011;66752;48.576;8.876;2023-02-01T08:18:29;7.32;;;2.83;;
77432;SDS011;66752;48.576;8.876;2023-02-01T08:20:55;5.43;;;2.40;;
77432;SDS011;66752;48.576;8.876;2023-02-01T08:23:22;7.10;;;2.72;;
77432;SDS011;66752;48.576;8.876;2023-02-01T08:25:48;8.23;;;3.55;;
77432;SDS011;66752;48.576;8.876;2023-02-01T08:28:14;10.00;;;3.40;;
77432;SDS011;66752;48.576;8.876;2023-02-01T08:30:40;6.45;;;2.78;;
77432;SDS011;66752;48.576;8.876;2023-02-01T08:33:09;8.45;;;3.53;;
77432;SDS011;66752;48.576;8.876;2023-02-01T08:35:36;8.10;;;2.70;;
77432;SDS011;66752;48.576;8.876;2023-02-01T08:38:02;10.38;;;3.13;;
77432;SDS011;66752;48.576;8.876;2023-02-01T08:40:28;6.65;;;3.03;;
77432;SDS011;66752;48.576;8.876;2023-02-01T08:42:54;6.47;;;2.80;;
77432;SDS011;66752;48.576;8.876;2023-02-01T08:45:21;7.45;;;2.90;;
77432;SDS011;66752;48.576;8.876;2023-02-01T08:47:51;6.07;;;2.53;;
77432;SDS011;66752;48.576;8.876;2023-02-01T08:50:18;7.50;;;2.90;;
77432;SDS011;66752;48.576;8.876;2023-02-01T08:52:44;6.38;;;3.20;;
77432;SDS011;66752;48.576;8.876;2023-02-01T08:55:11;8.02;;;4.13;;
77432;SDS011;66752;48.576;8.876;2023-02-01T08:57:37;7.00;;;3.13;;
77432;SDS011;66752;48.576;8.876;2023-02-01T09:00:04;9.05;;;3.92;;
77432;SDS011;66752;48.576;8.876;2023-02-01T09:02:30;7.45;;;3.38;;
77432;SDS011;66752;48.576;8.876;2023-02-01T09:04:56;7.88;;;2.90;;
77432;SDS011;66752;48.576;8.876;2023-02-01T09:07:22;9.52;;;2.83;;
77432;SDS011;66752;48.576;8.876;2023-02-01T09:09:48;5.30;;;2.25;;
77432;SDS011;66752;48.576;8.876;2023-02-01T09:12:14;5.85;;;1.80;;
77432;SDS011;66752;48.576;8.876;2023-02-01T09:14:40;6.63;;;2.38;;
77432;SDS011;66752;48.576;8.876;2023-02-01T09:17:06;9.00;;;2.67;;
77432;SDS011;66752;48.576;8.876;2023-02-01T09:19:32;6.18;;;1.98;;
77432;SDS011;66752;48.576;8.876;2023-02-01T09:21:58;5.72;;;1.77;;
77432;SDS011;66752;48.576;8.876;2023-02-01T09:24:24;5.22;;;2.22;;
77432;SDS011;66752;48.576;8.876;2023-02-01T09:26:50;8.77;;;2.20;;
77432;SDS011;66752;48.576;8.876;2023-02-01T09:29:16;6.40;;;2.03;;
77432;SDS011;66752;48.576;8.876;2023-02-01T09:31:42;7.25;;;1.92;;
77432;SDS011;66752;48.576;8.876;2023-02-01T09:34:08;6.07;;;2.70;;
77432;SDS011;66752;48.576;8.876;2023-02-01T09:36:34;8.73;;;3.22;;
77432;SDS011;66752;48.576;8.876;2023-02-01T09:39:01;10.18;;;3.15;;
77432;SDS011;66752;48.576;8.876;2023-02-01T09:41:48;4.53;;;2.20;;
77432;SDS011;66752;48.576;8.876;2023-02-01T09:44:24;6.72;;;3.28;;
77432;SDS011;66752;48.576;8.876;2023-02-01T09:46:56;8.15;;;3.83;;
77432;SDS011;66752;48.576;8.876;2023-02-01T09:49:25;8.73;;;2.83;;
77432;SDS011;66752;48.576;8.876;2023-02-01T09:51:52;5.18;;;2.42;;
77432;SDS011;66752;48.576;8.876;2023-02-01T09:54:19;5.85;;;1.92;;
77432;SDS011;66752;48.576;8.876;2023-02-01T09:56:58;7.22;;;2.92;;
77432;SDS011;66752;48.576;8.876;2023-02-01T09:59:29;11.45;;;3.42;;
77432;SDS011;66752;48.576;8.876;2023-02-01T10:01:58;7.93;;;2.53;;
77432;SDS011;66752;48.576;8.876;2023-02-01T10:04:25;7.10;;;2.17;;
77432;SDS011;66752;48.576;8.876;2023-02-01T10:09:20;7.93;;;2.58;;
77432;SDS011;66752;48.576;8.876;2023-02-01T10:22:08;10.88;;;2.45;;
77432;SDS011;66752;48.576;8.876;2023-02-01T10:24:37;10.02;;;2.22;;
77432;SDS011;66752;48.576;8.876;2023-02-01T10:27:09;11.25;;;2.45;;
77432;SDS011;66752;48.576;8.876;2023-02-01T10:29:38;12.55;;;2.15;;
77432;SDS011;66752;48.576;8.876;2023-02-01T10:32:15;9.15;;;2.03;;
77432;SDS011;66752;48.576;8.876;2023-02-01T10:34:42;6.55;;;1.90;;
77432;SDS011;66752;48.576;8.876;2023-02-01T10:37:20;4.72;;;1.70;;
77432;SDS011;66752;48.576;8.876;2023-02-01T10:39:48;7.60;;;2.00;;
77432;SDS011;66752;48.576;8.876;2023-02-01T10:42:16;11.25;;;1.90;;
77432;SDS011;66752;48.576;8.876;2023-02-01T10:44:44;11.68;;;2.08;;
77432;SDS011;66752;48.576;8.876;2023-02-01T10:47:12;7.20;;;2.03;;
77432;SDS011;66752;48.576;8.876;2023-02-01T10:49:40;9.18;;;2.00;;
77432;SDS011;66752;48.576;8.876;2023-02-01T10:54:38;5.53;;;1.90;;
77432;SDS011;66752;48.576;8.876;2023-02-01T10:57:08;8.95;;;2.28;;
77432;SDS011;66752;48.576;8.876;2023-02-01T10:59:34;7.22;;;1.80;;
77432;SDS011;66752;48.576;8.876;2023-02-01T11:02:16;4.88;;;1.65;;
77432;SDS011;66752;48.576;8.876;2023-02-01T11:04:43;7.78;;;2.03;;
77432;SDS011;66752;48.576;8.876;2023-02-01T11:07:24;5.82;;;2.10;;
77432;SDS011;66752;48.576;8.876;2023-02-01T11:09:52;7.20;;;1.95;;
77432;SDS011;66752;48.576;8.876;2023-02-01T11:12:38;10.68;;;2.10;;
77432;SDS011;66752;48.576;8.876;2023-02-01T11:15:14;8.57;;;2.33;;
77432;SDS011;66752;48.576;8.876;2023-02-01T11:17:44;7.20;;;2.30;;
77432;SDS011;66752;48.576;8.876;2023-02-01T11:20:15;8.27;;;2.10;;
77432;SDS011;66752;48.576;8.876;2023-02-01T11:23:15;6.82;;;1.88;;
77432;SDS011;66752;48.576;8.876;2023-02-01T11:25:33;7.65;;;1.67;;
77432;SDS011;66752;48.576;8.876;2023-02-01T11:28:02;6.10;;;2.22;;
77432;SDS011;66752;48.576;8.876;2023-02-01T11:30:41;5.90;;;1.88;;
77432;SDS011;66752;48.576;8.876;2023-02-01T11:33:10;7.18;;;1.90;;
77432;SDS011;66752;48.576;8.876;2023-02-01T11:35:38;8.90;;;2.03;;
77432;SDS011;66752;48.576;8.876;2023-02-01T11:38:11;7.45;;;2.05;;
77432;SDS011;66752;48.576;8.876;2023-02-01T11:40:37;5.95;;;1.90;;
77432;SDS011;66752;48.576;8.876;2023-02-01T11:43:08;6.85;;;1.95;;
77432;SDS011;66752;48.576;8.876;2023-02-01T11:45:35;10.50;;;2.15;;
77432;SDS011;66752;48.576;8.876;2023-02-01T11:48:02;6.57;;;1.90;;
77432;SDS011;66752;48.576;8.876;2023-02-01T12:13:49;8.85;;;2.08;;
77432;SDS011;66752;48.576;8.876;2023-02-01T12:16:19;7.95;;;2.00;;
77432;SDS011;66752;48.576;8.876;2023-02-01T12:22:02;7.43;;;1.88;;
77432;SDS011;66752;48.576;8.876;2023-02-01T12:24:27;8.70;;;2.20;;
77432;SDS011;66752;48.576;8.876;2023-02-01T12:39:32;7.22;;;1.63;;
77432;SDS011;66752;48.576;8.876;2023-02-01T12:42:09;5.30;;;2.58;;
77432;SDS011;66752;48.576;8.876;2023-02-01T12:44:43;9.68;;;2.10;;
77432;SDS011;66752;48.576;8.876;2023-02-01T12:47:21;6.80;;;2.10;;
77432;SDS011;66752;48.576;8.876;2023-02-01T12:49:50;7.88;;;2.17;;
77432;SDS011;66752;48.576;8.876;2023-02-01T12:52:18;8.65;;;2.85;;
77432;SDS011;66752;48.576;8.876;2023-02-01T12:54:59;11.38;;;2.13;;
77432;SDS011;66752;48.576;8.876;2023-02-01T12:57:28;8.20;;;1.75;;
77432;SDS011;66752;48.576;8.876;2023-02-01T13:02:28;8.00;;;2.28;;
77432;SDS011;66752;48.576;8.876;2023-02-01T13:05:03;7.05;;;2.20;;
77432;SDS011;66752;48.576;8.876;2023-02-01T13:07:31;5.80;;;1.75;;
77432;SDS011;66752;48.576;8.876;2023-02-01T13:10:05;4.95;;;1.50;;
77432;SDS011;66752;48.576;8.876;2023-02-01T13:12:38;10.68;;;2.05;;
77432;SDS011;66752;48.576;8.876;2023-02-01T13:18:04;6.60;;;1.95;;
77432;SDS011;66752;48.576;8.876;2023-02-01T13:20:32;5.70;;;1.67;;
77432;SDS011;66752;48.576;8.876;2023-02-01T13:25:30;9.70;;;2.05;;
77432;SDS011;66752;48.576;8.876;2023-02-01T13:28:00;12.02;;;2.03;;
77432;SDS011;66752;48.576;8.876;2023-02-01T13:30:30;7.35;;;1.70;;
77432;SDS011;66752;48.576;8.876;2023-02-01T13:42:57;8.88;;;2.03;;
77432;SDS011;66752;48.576;8.876;2023-02-01T13:45:24;12.35;;;2.38;;
77432;SDS011;66752;48.576;8.876;2023-02-01T13:47:52;15.25;;;7.18;;
77432;SDS011;66752;48.576;8.876;2023-02-01T13:50:24;15.00;;;6.10;;
77432;SDS011;66752;48.576;8.876;2023-02-01T13:52:52;6.45;;;2.25;;
77432;SDS011;66752;48.576;8.876;2023-02-01T13:57:47;9.55;;;2.40;;
77432;SDS011;66752;48.576;8.876;2023-02-01T14:00:33;8.18;;;2.03;;
77432;SDS011;66752;48.576;8.876;2023-02-01T14:13:24;5.47;;;1.60;;
77432;SDS011;66752;48.576;8.876;2023-02-01T14:26:40;13.13;;;4.07;;
77432;SDS011;66752;48.576;8.876;2023-02-01T14:31:40;9.73;;;2.47;;
77432;SDS011;66752;48.576;8.876;2023-02-01T14:34:15;19.88;;;6.55;;
77432;SDS011;66752;48.576;8.876;2023-02-01T14:36:43;7.28;;;2.00;;
77432;SDS011;66752;48.576;8.876;2023-02-01T14:39:20;6.80;;;1.77;;
77432;SDS011;66752;48.576;8.876;2023-02-01T14:41:48;6.30;;;2.08;;
77432;SDS011;66752;48.576;8.876;2023-02-01T14:44:26;5.88;;;2.28;;
77432;SDS011;66752;48.576;8.876;2023-02-01T14:49:30;11.00;;;2.13;;
77432;SDS011;66752;48.576;8.876;2023-02-01T14:51:57;7.97;;;1.73;;
77432;SDS011;66752;48.576;8.876;2023-02-01T14:54:24;9.85;;;1.98;;
77432;SDS011;66752;48.576;8.876;2023-02-01T14:56:50;9.70;;;2.20;;
77432;SDS011;66752;48.576;8.876;2023-02-01T14:59:17;11.00;;;2.22;;
77432;SDS011;66752;48.576;8.876;2023-02-01T15:01:50;12.02;;;2.25;;
77432;SDS011;66752;48.576;8.876;2023-02-01T15:04:18;7.20;;;1.98;;
77432;SDS011;66752;48.576;8.876;2023-02-01T15:07:02;8.25;;;2.10;;
77432;SDS011;66752;48.576;8.876;2023-02-01T15:09:31;5.70;;;1.98;;
77432;SDS011;66752;48.576;8.876;2023-02-01T15:12:23;5.80;;;2.15;;
77432;SDS011;66752;48.576;8.876;2023-02-01T15:17:33;9.05;;;2.60;;
77432;SDS011;66752;48.576;8.876;2023-02-01T15:20:01;5.75;;;2.20;;
77432;SDS011;66752;48.576;8.876;2023-02-01T15:22:27;9.05;;;2.25;;
77432;SDS011;66752;48.576;8.876;2023-02-01T15:24:55;7.65;;;2.47;;
77432;SDS011;66752;48.576;8.876;2023-02-01T15:27:21;10.85;;;2.80;;
77432;SDS011;66752;48.576;8.876;2023-02-01T15:29:47;5.82;;;2.10;;
77432;SDS011;66752;48.576;8.876;2023-02-01T15:32:33;7.10;;;1.83;;
77432;SDS011;66752;48.576;8.876;2023-02-01T15:34:59;10.90;;;2.33;;
77432;SDS011;66752;48.576;8.876;2023-02-01T15:37:26;9.40;;;2.63;;
77432;SDS011;66752;48.576;8.876;2023-02-01T15:42:32;6.50;;;2.33;;
77432;SDS011;66752;48.576;8.876;2023-02-01T15:44:58;8.70;;;2.80;;
77432;SDS011;66752;48.576;8.876;2023-02-01T15:47:25;9.95;;;2.38;;
77432;SDS011;66752;48.576;8.876;2023-02-01T15:49:52;15.98;;;2.70;;
77432;SDS011;66752;48.576;8.876;2023-02-01T15:54:47;10.25;;;2.20;;
77432;SDS011;66752;48.576;8.876;2023-02-01T15:57:18;6.72;;;2.80;;
77432;SDS011;66752;48.576;8.876;2023-02-01T15:59:45;9.85;;;3.22;;
77432;SDS011;66752;48.576;8.876;2023-02-01T16:02:25;12.48;;;5.85;;
77432;SDS011;66752;48.576;8.876;2023-02-01T16:04:51;10.32;;;3.22;;
77432;SDS011;66752;48.576;8.876;2023-02-01T16:09:54;5.47;;;2.47;;
77432;SDS011;66752;48.576;8.876;2023-02-01T16:12:28;8.57;;;2.40;;
77432;SDS011;66752;48.576;8.876;2023-02-01T16:14:55;9.40;;;3.20;;
77432;SDS011;66752;48.576;8.876;2023-02-01T16:17:21;14.05;;;3.72;;
77432;SDS011;66752;48.576;8.876;2023-02-01T16:19:47;16.60;;;7.05;;
77432;SDS011;66752;48.576;8.876;2023-02-01T16:22:13;12.75;;;3.42;;
77432;SDS011;66752;48.576;8.876;2023-02-01T16:24:39;13.05;;;4.40;;
77432;SDS011;66752;48.576;8.876;2023-02-01T16:27:05;7.32;;;2.55;;
77432;SDS011;66752;48.576;8.876;2023-02-01T16:29:32;10.02;;;4.32;;
77432;SDS011;66752;48.576;8.876;2023-02-01T16:31:58;8.02;;;2.60;;
77432;SDS011;66752;48.576;8.876;2023-02-01T16:34:24;8.25;;;2.15;;
77432;SDS011;66752;48.576;8.876;2023-02-01T16:36:50;7.90;;;3.20;;
77432;SDS011;66752;48.576;8.876;2023-02-01T16:39:20;11.02;;;3.75;;
77432;SDS011;66752;48.576;8.876;2023-02-01T16:41:46;5.28;;;2.58;;
77432;SDS011;66752;48.576;8.876;2023-02-01T16:44:12;11.82;;;3.10;;
77432;SDS011;66752;48.576;8.876;2023-02-01T16:46:39;12.48;;;3.10;;
77432;SDS011;66752;48.576;8.876;2023-02-01T16:51:32;11.93;;;3.47;;
77432;SDS011;66752;48.576;8.876;2023-02-01T16:54:00;7.85;;;3.40;;
77432;SDS011;66752;48.576;8.876;2023-02-01T16:56:31;10.85;;;3.30;;
77432;SDS011;66752;48.576;8.876;2023-02-01T16:58:57;7.85;;;3.70;;
77432;SDS011;66752;48.576;8.876;2023-02-01T17:01:24;9.63;;;2.50;;
77432;SDS011;66752;48.576;8.876;2023-02-01T17:03:50;8.57;;;2.75;;
77432;SDS011;66752;48.576;8.876;2023-02-01T17:06:17;11.25;;;3.03;;
77432;SDS011;66752;48.576;8.876;2023-02-01T17:08:50;9.18;;;2.38;;
77432;SDS011;66752;48.576;8.876;2023-02-01T17:11:17;11.43;;;3.08;;
77432;SDS011;66752;48.576;8.876;2023-02-01T17:13:43;7.32;;;2.17;;
77432;SDS011;66752;48.576;8.876;2023-02-01T17:18:36;15.65;;;2.13;;
77432;SDS011;66752;48.576;8.876;2023-02-01T17:21:02;5.10;;;2.13;;
77432;SDS011;66752;48.576;8.876;2023-02-01T17:23:29;8.90;;;2.28;;
77432;SDS011;66752;48.576;8.876;2023-02-01T17:25:56;7.72;;;2.50;;
77432;SDS011;66752;48.576;8.876;2023-02-01T17:28:22;7.97;;;2.28;;
77432;SDS011;66752;48.576;8.876;2023-02-01T17:30:48;6.88;;;2.15;;
77432;SDS011;66752;48.576;8.876;2023-02-01T17:35:44;10.55;;;2.67;;